createdAt,value
2022-12-17T00:04:27.695Z,-2.68
2022-12-17T00:09:50.369Z,-2.58
2022-12-17T00:15:10.458Z,-2.67
2022-12-17T00:20:30.475Z,-2.56
2022-12-17T00:25:50.466Z,-2.57
2022-12-17T00:31:10.936Z,-2.62
2022-12-17T00:36:31.102Z,-2.61
2022-12-17T00:41:52.639Z,-2.68
2022-12-17T00:47:12.596Z,-2.74
2022-12-17T00:52:34.754Z,-2.90
2022-12-17T00:57:54.653Z,-3.09
2022-12-17T01:03:24.963Z,-3.19
2022-12-17T01:08:44.900Z,-3.13
2022-12-17T01:14:05.015Z,-3.18
2022-12-17T01:19:45.032Z,-3.30
2022-12-17T01:25:05.451Z,-3.38
2022-12-17T01:30:26.386Z,-3.35
2022-12-17T01:35:46.867Z,-3.47
2022-12-17T01:41:10.993Z,-3.54
2022-12-17T01:46:31.546Z,-3.66
2022-12-17T01:51:52.913Z,-3.69
2022-12-17T01:57:13.055Z,-3.77
2022-12-17T02:02:33.107Z,-3.88
2022-12-17T02:08:09.451Z,-3.80
2022-12-17T02:13:38.511Z,-4.02
2022-12-17T02:19:11.064Z,-4.06
2022-12-17T02:24:44.226Z,-4.21
2022-12-17T02:30:12.332Z,-4.32
2022-12-17T02:35:35.862Z,-4.31
2022-12-17T02:40:56.929Z,-4.35
2022-12-17T02:46:17.420Z,-4.29
2022-12-17T02:51:41.794Z,-4.46
2022-12-17T02:57:01.912Z,-4.59
2022-12-17T03:02:21.867Z,-4.75
2022-12-17T03:07:42.127Z,-4.72
2022-12-17T03:13:02.509Z,-4.70
2022-12-17T03:18:22.574Z,-4.85
2022-12-17T03:23:42.358Z,-5.00
2022-12-17T03:29:02.543Z,-4.98
2022-12-17T03:34:22.711Z,-4.93
2022-12-17T03:39:42.524Z,-5.03
2022-12-17T03:45:02.861Z,-5.15
2022-12-17T03:50:24.343Z,-5.19
2022-12-17T03:55:44.335Z,-5.21
2022-12-17T04:01:04.854Z,-5.29
2022-12-17T04:06:24.788Z,-5.35
2022-12-17T04:11:44.748Z,-5.40
2022-12-17T04:17:04.610Z,-5.39
2022-12-17T04:22:25.133Z,-5.45
2022-12-17T04:27:44.989Z,-5.56
2022-12-17T04:33:05.600Z,-5.68
2022-12-17T04:38:26.304Z,-5.78
2022-12-17T04:43:46.511Z,-5.85
2022-12-17T04:49:06.912Z,-5.87
2022-12-17T04:54:27.144Z,-5.92
2022-12-17T04:59:48.331Z,-5.97
2022-12-17T05:05:08.746Z,-5.98
2022-12-17T05:10:28.680Z,-5.98
2022-12-17T05:15:53.151Z,-6.06
2022-12-17T05:21:15.481Z,-6.03
2022-12-17T05:26:41.710Z,-6.02
2022-12-17T05:32:01.501Z,-5.97
2022-12-17T05:37:21.184Z,-5.98
2022-12-17T05:42:41.244Z,-5.73
2022-12-17T05:48:01.256Z,-5.61
2022-12-17T05:53:24.996Z,-5.64
2022-12-17T05:58:45.467Z,-5.53
2022-12-17T06:04:06.005Z,-5.44
2022-12-17T06:09:26.337Z,-5.13
2022-12-17T06:14:46.380Z,-5.15
2022-12-17T06:20:06.258Z,-5.18
2022-12-17T06:25:26.783Z,-5.13
2022-12-17T06:30:47.434Z,-5.06
2022-12-17T06:36:07.782Z,-4.97
2022-12-17T06:41:27.660Z,-4.90
2022-12-17T06:46:47.637Z,-4.82
2022-12-17T06:52:09.708Z,-4.74
2022-12-17T06:57:30.342Z,-4.73
2022-12-17T07:02:50.756Z,-4.68
2022-12-17T07:08:18.697Z,-4.65
2022-12-17T07:13:38.985Z,-4.56
2022-12-17T07:18:59.405Z,-4.49
2022-12-17T07:24:19.658Z,-4.47
2022-12-17T07:29:39.759Z,-4.47
2022-12-17T07:35:00.047Z,-4.47
2022-12-17T07:40:20.947Z,-4.48
2022-12-17T07:45:41.275Z,-4.48
2022-12-17T07:51:01.492Z,-4.42
2022-12-17T07:56:21.286Z,-4.27
2022-12-17T08:01:41.812Z,-4.05
2022-12-17T08:07:08.732Z,-4.16
2022-12-17T08:12:43.976Z,-4.10
2022-12-17T08:18:03.875Z,-3.98
2022-12-17T08:23:24.854Z,-3.82
2022-12-17T08:28:52.364Z,-4.00
2022-12-17T08:34:15.607Z,-4.07
2022-12-17T08:39:36.894Z,-4.03
2022-12-17T08:44:57.236Z,-4.00
2022-12-17T08:50:17.350Z,-3.83
2022-12-17T08:55:37.742Z,-3.77
2022-12-17T09:00:58.993Z,-3.65
2022-12-17T09:06:19.283Z,-3.69
2022-12-17T09:11:39.366Z,-3.78
2022-12-17T09:16:59.875Z,-3.84
2022-12-17T09:22:20.003Z,-3.73
2022-12-17T09:27:40.079Z,-3.70
2022-12-17T09:33:00.849Z,-3.63
2022-12-17T09:38:21.208Z,-3.69
2022-12-17T09:43:50.754Z,-3.57
2022-12-17T09:49:19.381Z,-3.37
2022-12-17T09:55:01.989Z,-3.50
2022-12-17T10:00:39.046Z,-3.61
2022-12-17T10:05:59.747Z,-3.54
2022-12-17T10:11:34.511Z,-3.20
2022-12-17T10:17:11.730Z,-3.34
2022-12-17T10:22:37.936Z,-3.38
2022-12-17T10:28:00.374Z,-3.46
2022-12-17T10:33:24.679Z,-3.50
2022-12-17T10:38:48.717Z,-3.46
2022-12-17T10:44:08.555Z,-3.58
2022-12-17T10:49:34.738Z,-3.58
2022-12-17T10:54:55.393Z,-3.52
2022-12-17T11:00:15.566Z,-3.38
2022-12-17T11:05:59.198Z,-3.26
2022-12-17T11:11:22.873Z,-3.08
2022-12-17T11:16:46.194Z,-3.08
2022-12-17T11:22:09.819Z,-2.99
2022-12-17T11:27:37.216Z,-3.12
2022-12-17T11:33:16.852Z,-3.03
2022-12-17T11:38:49.029Z,-2.97
2022-12-17T11:44:31.147Z,-2.79
2022-12-17T11:50:00.704Z,-2.87
2022-12-17T11:55:50.074Z,-2.91
2022-12-17T12:01:25.850Z,-2.73
2022-12-17T12:07:15.352Z,-2.69
2022-12-17T12:12:59.140Z,-2.73
2022-12-17T12:18:46.639Z,-2.79
2022-12-17T12:24:31.119Z,-2.61
2022-12-17T12:30:01.712Z,-2.58
2022-12-17T12:35:24.144Z,-2.40
2022-12-17T12:40:56.851Z,-2.51
2022-12-17T12:46:40.101Z,-2.57
2022-12-17T12:52:01.001Z,-2.76
2022-12-17T12:57:20.893Z,-2.83
2022-12-17T13:02:51.524Z,-2.33
2022-12-17T13:08:03.705Z,-2.33
2022-12-17T13:13:55.948Z,-2.35
2022-12-17T13:19:04.185Z,-2.38
2022-12-17T13:24:22.726Z,-2.47
2022-12-17T13:29:32.221Z,-2.53
2022-12-17T13:35:10.458Z,-2.66
2022-12-17T13:40:45.253Z,-2.52
2022-12-17T13:45:47.310Z,-2.61
2022-12-17T13:51:02.134Z,-2.51
2022-12-17T13:56:03.845Z,-2.40
2022-12-17T14:01:09.195Z,-2.36
2022-12-17T14:06:11.498Z,-2.41
2022-12-17T14:11:31.585Z,-2.40
2022-12-17T14:16:33.090Z,-2.46
2022-12-17T14:21:37.310Z,-2.65
2022-12-17T14:26:53.303Z,-2.70
2022-12-17T14:32:03.932Z,-2.73
2022-12-17T14:37:05.577Z,-2.97
2022-12-17T14:42:26.793Z,-3.03
2022-12-17T14:47:41.590Z,-3.04
2022-12-17T14:52:49.059Z,-3.11
2022-12-17T14:57:51.611Z,-3.14
2022-12-17T15:02:55.098Z,-3.18
2022-12-17T15:07:57.012Z,-3.21
2022-12-17T15:12:59.924Z,-3.11
2022-12-17T15:18:02.499Z,-3.32
2022-12-17T15:23:04.052Z,-3.43
2022-12-17T15:28:05.378Z,-3.38
2022-12-17T15:33:08.463Z,-3.26
2022-12-17T15:38:11.248Z,-3.04
2022-12-17T15:43:15.379Z,-3.26
2022-12-17T15:48:21.836Z,-3.27
2022-12-17T15:53:25.637Z,-3.50
2022-12-17T15:58:27.534Z,-3.66
2022-12-17T16:03:29.100Z,-3.62
2022-12-17T16:08:30.572Z,-3.56
2022-12-17T16:13:31.945Z,-3.63
2022-12-17T16:18:33.659Z,-3.80
2022-12-17T16:23:37.596Z,-3.80
2022-12-17T16:28:40.264Z,-3.80
2022-12-17T16:33:43.214Z,-3.80
2022-12-17T16:38:47.677Z,-3.63
2022-12-17T16:43:50.074Z,-3.69
2022-12-17T16:48:52.437Z,-3.76
2022-12-17T16:53:54.057Z,-3.71
2022-12-17T16:58:56.640Z,-3.73
2022-12-17T17:04:07.104Z,-3.55
2022-12-17T17:09:09.646Z,-3.46
2022-12-17T17:14:11.341Z,-3.33
2022-12-17T17:19:13.529Z,-3.17
2022-12-17T17:24:21.448Z,-3.38
2022-12-17T17:29:24.232Z,-3.47
2022-12-17T17:34:25.652Z,-3.38
2022-12-17T17:39:31.859Z,-3.61
2022-12-17T17:44:33.814Z,-3.78
2022-12-17T17:49:38.618Z,-3.82
2022-12-17T17:54:40.809Z,-3.88
2022-12-17T17:59:42.528Z,-4.03
2022-12-17T18:04:44.184Z,-3.88
2022-12-17T18:09:46.784Z,-3.97
2022-12-17T18:15:12.776Z,-4.03
2022-12-17T18:20:10.708Z,-4.11
2022-12-17T18:25:13.450Z,-4.05
2022-12-17T18:30:16.243Z,-4.12
2022-12-17T18:35:18.059Z,-4.00
2022-12-17T18:40:19.721Z,-3.95
2022-12-17T18:45:21.395Z,-3.82
2022-12-17T18:50:23.791Z,-3.93
2022-12-17T18:55:25.655Z,-4.20
2022-12-17T19:00:27.055Z,-4.27
2022-12-17T19:05:30.805Z,-4.31
2022-12-17T19:10:37.629Z,-4.28
2022-12-17T19:15:39.264Z,-4.19
2022-12-17T19:20:40.635Z,-4.32
2022-12-17T19:25:42.243Z,-4.30
2022-12-17T19:30:44.277Z,-4.18
2022-12-17T19:35:45.676Z,-4.26
2022-12-17T19:40:52.129Z,-4.48
2022-12-17T19:46:01.361Z,-4.66
2022-12-17T19:51:04.126Z,-4.56
2022-12-17T19:56:32.552Z,-4.79
2022-12-17T20:01:41.280Z,-4.66
2022-12-17T20:06:44.141Z,-4.62
2022-12-17T20:11:45.579Z,-4.68
2022-12-17T20:16:58.197Z,-4.83
2022-12-17T20:22:02.015Z,-4.92
2022-12-17T20:27:03.835Z,-5.00
2022-12-17T20:32:05.476Z,-4.83
2022-12-17T20:37:07.042Z,-4.59
2022-12-17T20:42:09.269Z,-4.71
2022-12-17T20:47:10.727Z,-4.83
2022-12-17T20:52:12.233Z,-4.75
2022-12-17T20:57:15.959Z,-4.90
2022-12-17T21:02:18.647Z,-4.86
2022-12-17T21:07:20.075Z,-4.76
2022-12-17T21:12:21.461Z,-4.54
2022-12-17T21:17:23.507Z,-4.65
2022-12-17T21:22:25.309Z,-4.70
2022-12-17T21:27:26.714Z,-4.87
2022-12-17T21:32:33.707Z,-4.99
2022-12-17T21:37:35.400Z,-4.94
2022-12-17T21:43:13.838Z,-5.15
2022-12-17T21:48:15.530Z,-5.12
2022-12-17T21:53:17.087Z,-5.06
2022-12-17T21:58:19.227Z,-5.14
2022-12-17T22:03:20.846Z,-5.20
2022-12-17T22:08:22.239Z,-5.16
2022-12-17T22:13:42.663Z,-5.26
2022-12-17T22:18:44.123Z,-5.21
2022-12-17T22:23:49.223Z,-5.33
2022-12-17T22:28:50.964Z,-5.11
2022-12-17T22:35:08.328Z,-5.04
2022-12-17T22:44:15.258Z,-5.17
2022-12-17T22:44:51.775Z,-5.34
2022-12-17T22:49:55.354Z,-5.45
2022-12-17T22:54:57.350Z,-5.55
2022-12-17T23:00:00.781Z,-5.53
2022-12-17T23:05:02.155Z,-5.60
2022-12-17T23:10:05.002Z,-5.63
2022-12-17T23:15:06.900Z,-5.52
2022-12-17T23:20:08.874Z,-5.66
2022-12-17T23:25:10.765Z,-5.74
2022-12-17T23:30:13.940Z,-5.70
2022-12-17T23:35:15.611Z,-5.79
2022-12-17T23:40:17.106Z,-5.86
2022-12-17T23:45:18.746Z,-5.71
2022-12-17T23:50:20.094Z,-5.78
2022-12-17T23:55:21.489Z,-5.84
